Accueil
METAR-TAF:

METAR-TAF

Aéroports :

Bentonville Municipal Airport/Louise M Thaden Field

Bentonville, Arkansas, États-Unis

latitude: 36-21N, longitude: 094-13W, altitude: 395 m

Observation

Le bulletin a été fait il y a 46 minutes, à 18:56 UTC
Vent 8 kt de sud/sud-ouest
Température 29°C
Humidité 55%
Pression 1008 hPa
Visibilité: 16.1 km
Ciel clair

METAR: KVBT 081856Z AUTO 21008KT 10SM CLR 29/19 A2976 RMK AO2 SLP069 T02940189 TSNO

Heure: 14:42 (19:42 UTC)


TAF: absent

Observations et prévisions météorologiques de plus de 4000 aéroports (messages METAR et TAF).

Les stations disponibles sont représentées par des disques jaunes et rouges sur la carte.

Passer la souris dessus pour voir le nom de la station.

Cliquer dessus pour voir les observations et prévisions météorologiques.

Pour changer de carte: cliquez sur les boutons verts avec une croix noire pour zoomer, sur le bouton vert avec un tiret pour effectuer un zoom arrière, ou sur les flèches vertes pour les cartes adjacentes.


METAR-TAF: